Time;durP1;ratioP1;P1;durP2;ratioP2;P2;SDS_P1;SDS_P2;PMS_P1;PMS_P2;Temp;Humidity;BMP_temperature;BMP_pressure;BME280_temperature;BME280_humidity;BME280_pressure;Samples;Min_cycle;Max_cycle;Signal;HPM_P1;HPM_P2
2022/02/13 00:01:06;;;;;;;3.20;2.90;;;16.10;61.10;;;;;;5055528;28;20033;-26
2022/02/13 00:03:31;;;;;;;2.97;2.78;;;16.00;62.00;;;;;;5056082;28;20045;-27
2022/02/13 00:05:57;;;;;;;2.75;2.55;;;16.00;61.10;;;;;;5066328;28;20051;-27
2022/02/13 00:08:22;;;;;;;3.50;2.78;;;16.00;61.30;;;;;;5068472;28;20118;-26
2022/02/13 00:10:48;;;;;;;3.58;2.90;;;16.00;61.20;;;;;;5068095;28;20047;-28
2022/02/13 00:13:13;;;;;;;2.80;2.60;;;16.00;61.20;;;;;;5074386;28;20409;-27
2022/02/13 00:15:39;;;;;;;3.10;2.47;;;16.10;61.90;;;;;;5067417;28;20068;-27
2022/02/13 00:18:05;;;;;;;2.83;2.50;;;16.10;60.90;;;;;;5056791;28;20501;-26
2022/02/13 00:20:30;;;;;;;2.70;2.50;;;16.00;61.10;;;;;;5068593;28;20091;-26
2022/02/13 00:22:56;;;;;;;3.13;2.83;;;16.00;61.10;;;;;;5069401;28;20103;-27
2022/02/13 00:25:21;;;;;;;2.95;2.75;;;16.10;61.10;;;;;;5064850;28;20098;-27
2022/02/13 00:27:47;;;;;;;3.25;3.00;;;16.00;61.10;;;;;;5058488;28;20060;-26
2022/02/13 00:30:14;;;;;;;2.97;2.78;;;16.00;61.30;;;;;;5069196;28;20059;-26
2022/02/13 00:32:40;;;;;;;2.72;2.45;;;16.00;61.20;;;;;;5057882;28;20426;-27
2022/02/13 00:35:07;;;;;;;2.72;2.53;;;15.90;61.10;;;;;;5061207;28;20045;-26
2022/02/13 00:37:32;;;;;;;2.40;2.20;;;15.90;61.40;;;;;;5066887;28;20524;-26
2022/02/13 00:39:58;;;;;;;2.55;2.35;;;15.80;61.60;;;;;;5061885;28;20048;-27
2022/02/13 00:42:23;;;;;;;2.55;2.35;;;15.80;61.70;;;;;;5074381;28;20044;-27
2022/02/13 00:44:49;;;;;;;2.47;2.28;;;15.80;61.70;;;;;;5059854;28;20094;-27
2022/02/13 00:47:15;;;;;;;2.50;2.30;;;15.80;61.70;;;;;;5067826;28;20102;-27
2022/02/13 00:49:40;;;;;;;2.40;2.20;;;15.80;61.70;;;;;;5062723;28;20489;-27
2022/02/13 00:52:06;;;;;;;2.38;2.22;;;15.80;61.70;;;;;;5066202;28;20044;-26
2022/02/13 00:54:34;;;;;;;2.90;2.60;;;15.70;61.70;;;;;;5069996;28;20037;-27
2022/02/13 00:57:01;;;;;;;2.70;2.50;;;15.70;61.80;;;;;;5060812;28;20064;-26
2022/02/13 00:59:27;;;;;;;2.55;2.35;;;15.80;61.60;;;;;;5067743;28;20056;-27
2022/02/13 01:01:52;;;;;;;2.35;2.17;;;15.80;61.80;;;;;;5073335;28;20493;-27
2022/02/13 01:04:18;;;;;;;2.85;2.40;;;15.80;61.50;;;;;;5074158;28;20048;-29
2022/02/13 01:06:43;;;;;;;3.00;2.58;;;15.70;61.70;;;;;;5075241;28;20047;-26
2022/02/13 01:09:09;;;;;;;2.40;2.20;;;15.70;61.70;;;;;;5068786;28;20043;-26
2022/02/13 01:11:35;;;;;;;2.55;2.38;;;15.70;61.70;;;;;;5064543;28;20040;-27
2022/02/13 01:14:00;;;;;;;2.90;2.65;;;15.70;61.80;;;;;;5061497;28;20410;-26
2022/02/13 01:16:27;;;;;;;3.10;2.25;;;15.70;61.70;;;;;;5074287;28;20493;-27
2022/02/13 01:18:53;;;;;;;2.10;2.00;;;15.80;61.70;;;;;;5076009;28;20098;-27
2022/02/13 01:21:19;;;;;;;2.30;2.10;;;15.80;61.60;;;;;;5077822;28;20064;-26
2022/02/13 01:23:44;;;;;;;2.42;2.33;;;15.80;61.40;;;;;;5068896;28;20053;-27
2022/02/13 01:26:10;;;;;;;3.58;2.17;;;15.80;62.40;;;;;;5071742;28;20512;-26
2022/02/13 01:28:36;;;;;;;2.30;2.10;;;15.70;61.80;;;;;;5064367;28;20060;-27
2022/02/13 01:31:02;;;;;;;1.80;1.70;;;15.70;61.60;;;;;;5065319;28;20565;-26
2022/02/13 01:33:29;;;;;;;2.20;2.00;;;15.70;61.60;;;;;;5065665;28;20500;-26
2022/02/13 01:35:55;;;;;;;1.60;1.50;;;15.70;61.50;;;;;;5078501;28;20107;-26
2022/02/13 01:38:20;;;;;;;1.60;1.48;;;15.80;61.50;;;;;;5078297;28;20072;-26
2022/02/13 01:40:46;;;;;;;2.05;1.95;;;15.80;61.30;;;;;;5065686;28;20073;-27
2022/02/13 01:43:11;;;;;;;1.92;1.83;;;15.80;61.20;;;;;;5057993;28;20490;-27
2022/02/13 01:45:37;;;;;;;2.10;1.90;;;15.90;61.40;;;;;;5058798;28;20041;-27
2022/02/13 01:48:03;;;;;;;1.70;1.60;;;15.90;61.10;;;;;;5058839;28;20052;-28
2022/02/13 01:50:29;;;;;;;1.85;1.75;;;15.80;60.90;;;;;;5078126;28;20066;-27
2022/02/13 01:52:54;;;;;;;1.95;1.85;;;15.90;60.90;;;;;;5081342;28;20569;-27
2022/02/13 01:55:20;;;;;;;1.70;1.60;;;15.90;60.80;;;;;;5063938;28;20668;-27
2022/02/13 01:57:46;;;;;;;2.22;1.60;;;15.90;60.90;;;;;;5058279;28;20049;-27
2022/02/13 02:00:11;;;;;;;2.05;1.95;;;15.90;61.00;;;;;;5073856;28;20036;-26
2022/02/13 02:02:37;;;;;;;1.60;1.50;;;15.90;60.80;;;;;;5078090;28;20105;-26
2022/02/13 02:05:03;;;;;;;1.65;1.55;;;15.90;60.60;;;;;;5078529;28;20044;-26
2022/02/13 02:07:29;;;;;;;1.80;1.70;;;15.90;60.60;;;;;;5070969;28;20044;-27
2022/02/13 02:09:54;;;;;;;1.63;1.52;;;15.90;60.80;;;;;;5068658;28;20040;-27
2022/02/13 02:12:20;;;;;;;1.50;1.40;;;15.80;60.80;;;;;;5068675;28;20041;-27
2022/02/13 02:14:46;;;;;;;1.85;1.75;;;15.90;60.70;;;;;;5060252;28;20040;-27
2022/02/13 02:17:11;;;;;;;2.08;1.80;;;15.80;60.70;;;;;;5073366;28;20068;-27
2022/02/13 02:19:37;;;;;;;1.83;1.73;;;15.90;60.60;;;;;;5074164;28;20051;-28
2022/02/13 02:22:07;;;;;;;1.65;1.55;;;15.80;60.70;;;;;;5077397;28;20042;-26
2022/02/13 02:24:32;;;;;;;1.40;1.30;;;15.80;60.70;;;;;;5075200;28;20036;-28
2022/02/13 02:26:59;;;;;;;1.88;1.65;;;15.80;60.60;;;;;;5059219;28;20051;-27
2022/02/13 02:29:24;;;;;;;1.40;1.30;;;15.80;60.70;;;;;;5067806;28;20056;-26
2022/02/13 02:31:50;;;;;;;1.38;1.27;;;15.80;60.70;;;;;;5077528;28;20048;-27
2022/02/13 02:34:16;;;;;;;1.52;1.42;;;15.80;60.60;;;;;;5077150;28;20040;-27
2022/02/13 02:36:41;;;;;;;1.58;1.48;;;15.80;60.70;;;;;;5074294;28;20052;-27
2022/02/13 02:39:07;;;;;;;1.25;1.15;;;15.80;60.80;;;;;;5057944;28;20036;-27
2022/02/13 02:41:32;;;;;;;1.73;1.20;;;15.80;60.90;;;;;;5057254;28;20072;-27
2022/02/13 02:43:58;;;;;;;1.73;1.58;;;15.80;60.70;;;;;;5059400;28;20033;-28
2022/02/13 02:46:24;;;;;;;1.52;1.42;;;15.80;60.80;;;;;;5067932;28;20046;-27
2022/02/13 02:48:50;;;;;;;1.40;1.30;;;15.80;60.90;;;;;;5062229;28;20447;-26
2022/02/13 02:51:15;;;;;;;1.45;1.35;;;15.80;60.90;;;;;;5067001;28;20446;-26
2022/02/13 02:53:42;;;;;;;1.60;1.50;;;15.80;60.90;;;;;;5075521;28;20040;-27
2022/02/13 02:56:08;;;;;;;1.42;1.33;;;15.80;60.90;;;;;;5077443;28;20045;-27
2022/02/13 02:58:34;;;;;;;1.40;1.30;;;15.80;60.90;;;;;;5076963;28;20037;-26
2022/02/13 03:00:59;;;;;;;1.30;1.20;;;15.80;60.80;;;;;;5062366;28;20044;-27
2022/02/13 03:03:25;;;;;;;1.38;1.27;;;15.80;60.90;;;;;;5076190;28;20039;-26
2022/02/13 03:05:51;;;;;;;1.52;1.42;;;15.80;60.90;;;;;;5062201;28;20052;-27
2022/02/13 03:08:17;;;;;;;1.00;1.00;;;15.80;60.90;;;;;;5076514;28;20040;-27
2022/02/13 03:10:43;;;;;;;1.10;1.10;;;15.80;60.90;;;;;;5076559;28;20056;-27
2022/02/13 03:13:10;;;;;;;1.58;1.33;;;15.80;60.90;;;;;;5059301;28;20044;-28
2022/02/13 03:15:36;;;;;;;1.27;1.17;;;15.80;61.00;;;;;;5056775;28;20041;-27
2022/02/13 03:18:02;;;;;;;1.60;1.50;;;15.80;60.90;;;;;;5056464;28;20044;-27
2022/02/13 03:20:28;;;;;;;1.40;1.30;;;15.80;60.90;;;;;;5069382;28;20048;-26
2022/02/13 03:22:53;;;;;;;1.30;1.20;;;15.80;60.90;;;;;;5056845;28;20045;-27
2022/02/13 03:25:19;;;;;;;1.02;1.02;;;15.70;61.30;;;;;;5062521;28;20045;-28
2022/02/13 03:27:45;;;;;;;1.20;1.20;;;15.70;61.10;;;;;;5073993;28;20047;-26
2022/02/13 03:30:11;;;;;;;1.20;1.10;;;15.70;61.10;;;;;;5065893;28;20052;-28
2022/02/13 03:32:36;;;;;;;1.35;1.25;;;15.80;61.00;;;;;;5073459;28;20062;-27
2022/02/13 03:35:02;;;;;;;1.10;1.10;;;15.80;60.90;;;;;;5074919;28;20044;-26
2022/02/13 03:37:27;;;;;;;1.33;1.23;;;15.80;60.90;;;;;;5067157;28;20098;-26
2022/02/13 03:39:53;;;;;;;1.35;1.25;;;15.80;60.90;;;;;;5069785;28;20508;-26
2022/02/13 03:42:19;;;;;;;1.20;1.10;;;15.80;61.00;;;;;;5058572;28;20104;-28
2022/02/13 03:44:44;;;;;;;1.40;1.30;;;15.70;60.90;;;;;;5074162;28;20040;-27
2022/02/13 03:47:10;;;;;;;1.10;1.10;;;15.80;60.80;;;;;;5061716;28;20041;-27
2022/02/13 03:49:36;;;;;;;1.40;1.30;;;15.80;60.80;;;;;;5065023;28;20037;-26
2022/02/13 03:52:01;;;;;;;1.38;1.27;;;15.80;60.80;;;;;;5067403;28;20386;-27
2022/02/13 03:54:27;;;;;;;1.10;1.00;;;15.80;60.90;;;;;;5074892;28;20048;-28
2022/02/13 03:56:53;;;;;;;1.33;1.23;;;15.70;60.90;;;;;;5065486;28;20040;-27
2022/02/13 03:59:18;;;;;;;1.25;1.23;;;15.70;60.90;;;;;;5066882;28;20043;-27
2022/02/13 04:01:44;;;;;;;0.93;0.93;;;15.70;60.90;;;;;;5069746;28;20127;-27
2022/02/13 04:04:09;;;;;;;1.40;1.30;;;15.70;60.90;;;;;;5067691;28;20045;-28
2022/02/13 04:06:35;;;;;;;1.00;1.00;;;15.70;61.30;;;;;;5075246;28;20102;-26
2022/02/13 04:09:00;;;;;;;1.45;1.35;;;15.70;61.30;;;;;;5075158;28;20135;-26
2022/02/13 04:11:26;;;;;;;1.30;1.20;;;15.70;61.10;;;;;;5074142;28;20043;-27
2022/02/13 04:13:52;;;;;;;1.25;1.15;;;15.70;60.90;;;;;;5073901;28;20428;-26
2022/02/13 04:16:17;;;;;;;1.23;1.13;;;15.70;60.90;;;;;;5075406;28;20048;-27
2022/02/13 04:18:43;;;;;;;0.88;0.88;;;15.70;61.00;;;;;;5062338;28;20429;-27
2022/02/13 04:21:09;;;;;;;1.02;1.02;;;15.70;61.30;;;;;;5075397;28;20036;-27
2022/02/13 04:23:34;;;;;;;1.00;1.00;;;15.70;61.20;;;;;;5073724;28;20044;-26
2022/02/13 04:26:00;;;;;;;1.20;1.10;;;15.70;61.00;;;;;;5070644;28;20528;-27
2022/02/13 04:28:27;;;;;;;1.08;1.08;;;15.70;61.40;;;;;;5054835;28;20054;-26
2022/02/13 04:30:55;;;;;;;1.23;1.13;;;15.60;61.50;;;;;;5055324;28;20037;-27
2022/02/13 04:33:21;;;;;;;1.15;1.10;;;15.60;61.50;;;;;;5061913;28;20424;-27
2022/02/13 04:35:47;;;;;;;0.93;0.90;;;15.60;61.50;;;;;;5075582;28;20043;-28
2022/02/13 04:38:13;;;;;;;1.17;1.08;;;15.60;61.60;;;;;;5057976;28;20045;-26
2022/02/13 04:40:38;;;;;;;1.23;1.13;;;15.50;61.80;;;;;;5062830;28;20101;-26
2022/02/13 04:43:04;;;;;;;0.98;0.98;;;15.50;62.00;;;;;;5075175;28;20493;-27
2022/02/13 04:45:29;;;;;;;1.20;1.10;;;15.50;62.10;;;;;;5061356;28;20044;-28
2022/02/13 04:47:55;;;;;;;1.10;1.10;;;15.40;62.20;;;;;;5066193;28;20404;-27
2022/02/13 04:50:21;;;;;;;0.90;0.90;;;15.50;62.20;;;;;;5063938;28;20075;-25
2022/02/13 04:52:50;;;;;;;1.20;1.20;;;15.50;62.10;;;;;;5068836;28;20055;-27
2022/02/13 04:55:16;;;;;;;1.23;1.13;;;15.40;62.30;;;;;;5067756;28;20575;-26
2022/02/13 04:57:42;;;;;;;0.90;0.90;;;15.40;62.30;;;;;;5070114;28;20497;-27
2022/02/13 05:00:09;;;;;;;0.88;0.88;;;15.40;62.30;;;;;;5063358;28;20586;-27
2022/02/13 05:02:35;;;;;;;0.90;0.90;;;15.40;62.40;;;;;;5073161;28;22990;-27
2022/02/13 05:05:01;;;;;;;1.13;1.02;;;15.40;62.30;;;;;;5071464;28;20044;-26
2022/02/13 05:07:26;;;;;;;1.00;1.00;;;15.40;62.30;;;;;;5073925;28;20112;-26
2022/02/13 05:09:52;;;;;;;0.90;0.90;;;15.50;62.20;;;;;;5070239;28;20044;-28
2022/02/13 05:12:17;;;;;;;0.80;0.80;;;15.40;62.20;;;;;;5073953;28;20063;-27
2022/02/13 05:14:43;;;;;;;1.08;0.98;;;15.40;62.20;;;;;;5056187;28;20098;-28
2022/02/13 05:17:09;;;;;;;0.70;0.70;;;15.40;62.20;;;;;;5054613;28;20476;-28
2022/02/13 05:19:34;;;;;;;0.80;0.80;;;15.40;62.30;;;;;;5064213;28;20060;-27
2022/02/13 05:22:00;;;;;;;0.70;0.70;;;15.40;62.50;;;;;;5074877;28;20097;-27
2022/02/13 05:24:25;;;;;;;0.60;0.60;;;15.40;62.30;;;;;;5074228;28;20045;-27
2022/02/13 05:26:51;;;;;;;0.70;0.70;;;15.40;62.40;;;;;;5074899;28;20400;-26
2022/02/13 05:29:17;;;;;;;1.10;1.10;;;15.40;62.40;;;;;;5055814;28;20069;-26
2022/02/13 05:31:44;;;;;;;0.88;0.88;;;15.40;62.40;;;;;;5056251;28;20107;-26
2022/02/13 05:34:14;;;;;;;1.05;1.02;;;15.30;62.40;;;;;;5061868;28;20041;-26
2022/02/13 05:36:40;;;;;;;1.10;1.00;;;15.30;62.40;;;;;;5063990;28;20051;-28
2022/02/13 05:39:06;;;;;;;0.98;0.98;;;15.40;62.40;;;;;;5059953;28;20041;-28
2022/02/13 05:41:31;;;;;;;0.85;0.85;;;15.30;62.50;;;;;;5067627;28;20106;-21
2022/02/13 05:43:57;;;;;;;0.80;0.73;;;15.30;62.50;;;;;;5052821;28;20048;-21
2022/02/13 05:46:25;;;;;;;0.73;0.73;;;15.30;62.50;;;;;;5061758;28;20186;-21
2022/02/13 05:48:51;;;;;;;1.00;1.00;;;15.30;62.60;;;;;;5063806;28;20044;-21
2022/02/13 05:51:16;;;;;;;0.88;0.88;;;15.30;62.50;;;;;;5063671;28;20053;-22
2022/02/13 05:53:42;;;;;;;1.10;1.00;;;15.30;62.40;;;;;;5065469;28;20063;-21
2022/02/13 05:56:08;;;;;;;0.80;0.80;;;15.30;62.30;;;;;;5073187;28;20047;-21
2022/02/13 05:58:39;;;;;;;0.75;0.75;;;15.30;62.40;;;;;;5069567;28;20134;-20
2022/02/13 06:01:05;;;;;;;1.23;0.70;;;15.30;62.40;;;;;;5069818;28;20044;-21
2022/02/13 06:03:31;;;;;;;1.10;1.00;;;15.30;62.50;;;;;;5058709;28;20281;-20
2022/02/13 06:05:56;;;;;;;1.42;0.60;;;15.30;62.50;;;;;;5064801;28;20386;-20
2022/02/13 06:08:23;;;;;;;1.00;0.95;;;15.30;62.50;;;;;;5067063;28;20045;-20
2022/02/13 06:10:48;;;;;;;0.50;0.50;;;15.30;62.50;;;;;;5060389;28;20040;-20
2022/02/13 06:13:14;;;;;;;0.77;0.77;;;15.30;62.50;;;;;;5073208;28;20166;-22
2022/02/13 06:15:39;;;;;;;0.95;0.90;;;15.30;62.50;;;;;;5065332;28;20079;-21
2022/02/13 06:18:05;;;;;;;0.70;0.70;;;15.30;62.50;;;;;;5063900;28;20559;-20
2022/02/13 06:20:31;;;;;;;0.68;0.68;;;15.30;62.40;;;;;;5069167;28;20048;-20
2022/02/13 06:22:56;;;;;;;0.88;0.88;;;15.30;62.50;;;;;;5064490;28;20045;-20
2022/02/13 06:25:22;;;;;;;0.60;0.60;;;15.30;62.50;;;;;;5066362;28;20131;-20
2022/02/13 06:27:48;;;;;;;0.75;0.75;;;15.30;62.40;;;;;;5074530;28;20446;-21
2022/02/13 06:30:13;;;;;;;1.15;0.70;;;15.30;62.30;;;;;;5069968;28;20577;-21
2022/02/13 06:32:39;;;;;;;0.63;0.63;;;15.30;62.40;;;;;;5057214;28;20044;-21
2022/02/13 06:35:05;;;;;;;0.68;0.68;;;15.30;62.50;;;;;;5057607;28;20521;-21
2022/02/13 06:37:30;;;;;;;0.90;0.90;;;15.30;62.30;;;;;;5061391;28;20131;-20
2022/02/13 06:39:57;;;;;;;0.70;0.70;;;15.30;62.50;;;;;;5064297;28;20048;-21
2022/02/13 06:42:23;;;;;;;0.73;0.70;;;15.30;62.40;;;;;;5059507;28;20047;-22
2022/02/13 06:44:49;;;;;;;0.75;0.75;;;15.30;62.20;;;;;;5068244;28;20048;-21
2022/02/13 06:47:15;;;;;;;0.80;0.70;;;15.30;62.30;;;;;;5070941;28;20041;-21
2022/02/13 06:49:41;;;;;;;0.85;0.70;;;15.30;62.40;;;;;;5072909;28;20044;-21
2022/02/13 06:52:06;;;;;;;0.98;0.90;;;15.30;62.30;;;;;;5065725;28;20443;-20
2022/02/13 06:54:32;;;;;;;0.60;0.60;;;15.30;62.20;;;;;;5075163;28;20040;-21
2022/02/13 06:56:57;;;;;;;0.80;0.70;;;15.20;62.40;;;;;;5075887;28;20175;-21
2022/02/13 06:59:23;;;;;;;0.82;0.80;;;15.30;62.30;;;;;;5076933;28;20048;-20
2022/02/13 07:01:49;;;;;;;0.88;0.88;;;15.30;62.20;;;;;;5059419;28;20532;-20
2022/02/13 07:04:15;;;;;;;0.75;0.70;;;15.30;62.30;;;;;;5063774;28;20131;-20
2022/02/13 07:06:41;;;;;;;0.60;0.60;;;15.30;62.30;;;;;;5059521;28;20129;-20
2022/02/13 07:09:07;;;;;;;0.70;0.70;;;15.30;62.20;;;;;;5060909;28;20440;-20
2022/02/13 07:11:33;;;;;;;0.60;0.60;;;15.30;62.20;;;;;;5070864;28;20370;-21
2022/02/13 07:13:58;;;;;;;0.50;0.50;;;15.20;62.20;;;;;;5078661;28;20041;-20
2022/02/13 07:16:24;;;;;;;0.60;0.60;;;15.20;62.40;;;;;;5084883;28;20120;-21
2022/02/13 07:18:49;;;;;;;1.05;0.90;;;15.20;62.50;;;;;;5056849;28;20505;-21
2022/02/13 07:21:15;;;;;;;0.55;0.55;;;15.20;62.50;;;;;;5069787;28;20048;-21
2022/02/13 07:23:41;;;;;;;0.60;0.60;;;15.20;62.50;;;;;;5073274;28;20135;-21
2022/02/13 07:26:06;;;;;;;0.60;0.60;;;15.20;62.50;;;;;;5062349;28;20531;-20
2022/02/13 07:29:14;;;;;;;0.50;0.50;;;15.20;62.50;;;;;;5066805;28;20426;-21
2022/02/13 07:31:30;;;;;;;0.64;0.64;;;15.30;62.20;;;;;;4908081;28;10000565;-20
2022/02/13 07:33:56;;;;;;;0.77;0.50;;;15.30;62.20;;;;;;5069607;28;20280;-20
2022/02/13 07:36:22;;;;;;;0.60;0.60;;;15.40;62.10;;;;;;5056623;28;20076;-21
2022/02/13 07:38:48;;;;;;;0.63;0.55;;;15.30;62.10;;;;;;5069889;28;20055;-21
2022/02/13 07:41:13;;;;;;;0.60;0.60;;;15.30;62.10;;;;;;5066580;28;20048;-20
2022/02/13 07:43:39;;;;;;;0.60;0.60;;;15.40;62.10;;;;;;5060135;28;20131;-20
2022/02/13 07:46:05;;;;;;;0.55;0.55;;;15.40;62.00;;;;;;5059603;28;20049;-20
2022/02/13 07:48:30;;;;;;;0.68;0.68;;;15.40;61.90;;;;;;5072103;28;20048;-21
2022/02/13 07:50:56;;;;;;;0.70;0.70;;;15.30;61.90;;;;;;5067875;28;20576;-21
2022/02/13 07:53:22;;;;;;;0.68;0.68;;;15.30;62.00;;;;;;5052907;28;20050;-20
2022/02/13 07:55:47;;;;;;;0.75;0.75;;;15.30;61.90;;;;;;5065282;28;20052;-20
2022/02/13 07:58:13;;;;;;;1.52;0.63;;;15.30;62.10;;;;;;5064383;28;20122;-21
2022/02/13 08:00:39;;;;;;;0.70;0.70;;;15.40;62.20;;;;;;5061245;28;20068;-21
2022/02/13 08:03:04;;;;;;;1.05;0.65;;;15.40;62.00;;;;;;5060667;28;20049;-21
2022/02/13 08:05:30;;;;;;;0.50;0.50;;;15.40;61.90;;;;;;5069936;28;20041;-20
2022/02/13 08:07:55;;;;;;;0.47;0.43;;;15.40;62.00;;;;;;5060832;28;20056;-20
2022/02/13 08:10:21;;;;;;;1.75;0.55;;;15.40;62.00;;;;;;5057989;28;20120;-21
2022/02/13 08:12:46;;;;;;;0.70;0.70;;;15.40;61.90;;;;;;5063858;28;20052;-21
2022/02/13 08:15:12;;;;;;;0.50;0.50;;;15.40;62.00;;;;;;5054244;28;20071;-21
2022/02/13 08:17:38;;;;;;;0.75;0.75;;;15.40;61.90;;;;;;5061018;28;20056;-21
2022/02/13 08:20:07;;;;;;;0.60;0.50;;;15.50;61.60;;;;;;5065971;28;20079;-21
2022/02/13 08:22:33;;;;;;;0.60;0.60;;;15.50;61.60;;;;;;5067251;28;20032;-21
2022/02/13 08:24:59;;;;;;;0.40;0.40;;;15.50;61.60;;;;;;5070712;28;20540;-21
2022/02/13 08:27:25;;;;;;;0.60;0.60;;;15.50;61.40;;;;;;5068162;28;20528;-20
2022/02/13 08:29:51;;;;;;;0.60;0.55;;;15.50;61.50;;;;;;5068844;28;20651;-20
2022/02/13 08:32:17;;;;;;;0.43;0.43;;;15.50;61.30;;;;;;5070922;28;20051;-20
2022/02/13 08:34:43;;;;;;;1.55;0.60;;;15.50;61.30;;;;;;5066795;28;20052;-21
2022/02/13 08:37:08;;;;;;;0.68;0.68;;;15.50;61.30;;;;;;5067844;28;20051;-20
2022/02/13 08:39:34;;;;;;;0.60;0.60;;;15.50;61.30;;;;;;5071168;28;20044;-21
2022/02/13 08:42:00;;;;;;;0.50;0.50;;;15.50;61.60;;;;;;5067934;28;20117;-20
2022/02/13 08:44:26;;;;;;;0.40;0.40;;;15.50;61.50;;;;;;5070833;28;20047;-20
2022/02/13 08:46:51;;;;;;;0.88;0.70;;;15.50;61.60;;;;;;5064810;28;20057;-20
2022/02/13 08:49:17;;;;;;;0.50;0.50;;;15.50;61.40;;;;;;5063175;28;20045;-21
2022/02/13 08:51:44;;;;;;;0.57;0.52;;;15.50;61.40;;;;;;5069889;28;20072;-21
2022/02/13 08:54:09;;;;;;;1.08;0.57;;;15.50;61.30;;;;;;5066950;28;20047;-20
2022/02/13 08:56:35;;;;;;;0.75;0.57;;;15.50;61.30;;;;;;5060872;28;20124;-21
2022/02/13 08:59:01;;;;;;;0.50;0.50;;;15.50;61.40;;;;;;5066284;28;20068;-21
2022/02/13 09:01:27;;;;;;;0.60;0.60;;;15.50;61.50;;;;;;5068468;28;20121;-20
2022/02/13 09:03:52;;;;;;;2.05;0.70;;;15.50;61.40;;;;;;5065681;28;20099;-21
2022/02/13 09:06:18;;;;;;;0.50;0.50;;;15.50;61.50;;;;;;5061810;28;20040;-20
2022/02/13 09:08:43;;;;;;;0.65;0.60;;;15.50;61.50;;;;;;5069181;28;20048;-20
2022/02/13 09:11:09;;;;;;;0.63;0.50;;;15.50;61.50;;;;;;5068546;28;20094;-20
2022/02/13 09:13:35;;;;;;;0.60;0.60;;;15.50;61.40;;;;;;5067396;28;20045;-21
2022/02/13 09:16:00;;;;;;;0.60;0.50;;;15.50;61.40;;;;;;5064831;28;20053;-20
2022/02/13 09:18:26;;;;;;;0.70;0.50;;;15.50;61.30;;;;;;5070058;28;20064;-21
2022/02/13 09:20:52;;;;;;;0.60;0.60;;;15.50;61.50;;;;;;5067866;28;20082;-20
2022/02/13 09:23:17;;;;;;;0.82;0.70;;;15.50;61.40;;;;;;5070130;28;20048;-21
2022/02/13 09:25:43;;;;;;;0.32;0.32;;;15.50;61.30;;;;;;5060322;28;20055;-20
2022/02/13 09:28:09;;;;;;;0.80;0.68;;;15.50;61.30;;;;;;5054907;28;20075;-20
2022/02/13 09:30:35;;;;;;;0.60;0.60;;;15.50;61.60;;;;;;5060273;28;20049;-20
2022/02/13 09:33:00;;;;;;;1.95;0.47;;;15.50;61.40;;;;;;5066520;28;20048;-21
2022/02/13 09:35:26;;;;;;;0.45;0.45;;;15.50;61.50;;;;;;5066946;28;20048;-21
2022/02/13 09:37:52;;;;;;;2.28;0.57;;;15.50;61.60;;;;;;5066901;28;20136;-20
2022/02/13 09:40:18;;;;;;;0.85;0.80;;;15.40;61.50;;;;;;5073808;28;20066;-21
2022/02/13 09:42:46;;;;;;;1.00;0.50;;;15.50;61.40;;;;;;5074190;28;20041;-20
2022/02/13 09:45:11;;;;;;;0.35;0.35;;;15.50;61.40;;;;;;5074630;28;20308;-20
2022/02/13 09:47:37;;;;;;;0.95;0.50;;;15.50;61.40;;;;;;5082730;28;20041;-20
2022/02/13 09:50:04;;;;;;;0.47;0.40;;;15.50;62.10;;;;;;5075164;28;20048;-20
2022/02/13 09:52:30;;;;;;;0.80;0.80;;;15.50;61.30;;;;;;5060318;28;20044;-20
2022/02/13 09:54:56;;;;;;;0.65;0.65;;;15.50;61.20;;;;;;5073942;28;20052;-20
2022/02/13 10:00:06;;;;;;;0.57;0.57;;;15.60;61.30;;;;;;5064098;28;20063;-20
2022/02/13 10:02:36;;;;;;;1.48;0.90;;;15.60;61.30;;;;;;5057583;28;20615;-20
2022/02/13 10:05:03;;;;;;;0.60;0.60;;;15.60;61.30;;;;;;5066253;28;20129;-20
2022/02/13 10:07:31;;;;;;;0.88;0.70;;;15.50;61.30;;;;;;5057816;28;20049;-21
2022/02/13 10:09:58;;;;;;;0.57;0.57;;;15.50;61.30;;;;;;5057618;28;20059;-20
2022/02/13 10:12:42;;;;;;;0.70;0.70;;;15.60;61.30;;;;;;5068841;28;20044;-20
2022/02/13 10:15:27;;;;;;;0.50;0.50;;;15.50;61.30;;;;;;5072227;28;20060;-20
2022/02/13 10:17:56;;;;;;;2.10;0.80;;;15.60;61.40;;;;;;5072314;28;20048;-20
2022/02/13 10:20:29;;;;;;;0.75;0.75;;;15.50;61.40;;;;;;5071377;28;20537;-21
2022/02/13 10:22:55;;;;;;;0.95;0.70;;;15.60;61.50;;;;;;5053294;28;20053;-21
2022/02/13 10:25:21;;;;;;;0.70;0.70;;;15.60;61.30;;;;;;5066173;28;20052;-20
2022/02/13 10:27:48;;;;;;;0.70;0.70;;;15.60;61.30;;;;;;5059616;28;20093;-20
2022/02/13 10:30:33;;;;;;;1.42;0.85;;;15.60;61.20;;;;;;5065040;28;20134;-21
2022/02/13 10:33:13;;;;;;;0.60;0.60;;;15.60;61.20;;;;;;5080029;28;20504;-20
2022/02/13 10:35:39;;;;;;;0.70;0.70;;;15.60;61.10;;;;;;5073096;28;20592;-21
2022/02/13 10:38:04;;;;;;;3.30;0.95;;;15.60;61.10;;;;;;5060904;28;21661;-21
2022/02/13 10:40:33;;;;;;;0.80;0.80;;;15.60;61.10;;;;;;5065106;28;20045;-21
2022/02/13 10:43:04;;;;;;;0.70;0.70;;;15.70;61.20;;;;;;5059491;28;20048;-20
2022/02/13 10:45:30;;;;;;;0.60;0.60;;;15.60;61.10;;;;;;5057011;28;20058;-20
2022/02/13 10:47:58;;;;;;;0.85;0.85;;;15.60;61.00;;;;;;5055916;28;20056;-20
2022/02/13 10:50:24;;;;;;;0.90;0.82;;;15.60;61.00;;;;;;5063809;28;20426;-20
2022/02/13 10:52:51;;;;;;;0.68;0.68;;;15.70;61.10;;;;;;5061744;28;20095;-20
2022/02/13 10:55:17;;;;;;;0.80;0.80;;;15.60;61.10;;;;;;5054575;28;20052;-20
2022/02/13 10:57:43;;;;;;;0.80;0.70;;;15.60;61.10;;;;;;5067557;28;20038;-20
2022/02/13 11:00:10;;;;;;;1.60;0.90;;;15.60;61.10;;;;;;5064489;28;20051;-20
2022/02/13 11:02:37;;;;;;;0.70;0.70;;;15.60;61.20;;;;;;5060200;28;20041;-21
2022/02/13 11:05:03;;;;;;;2.83;0.70;;;15.60;61.10;;;;;;5072311;28;20052;-20
2022/02/13 11:19:13;;;;;;;0.95;0.60;;;15.60;60.60;;;;;;4693848;27;10001313;-25
2022/02/13 11:21:40;;;;;;;1.15;1.05;;;15.70;61.80;;;;;;5056788;28;20095;-25
2022/02/13 11:24:06;;;;;;;0.60;0.60;;;15.70;60.90;;;;;;5044079;28;20033;-25
2022/02/13 11:26:42;;;;;;;1.25;0.70;;;15.70;60.90;;;;;;5048149;28;20128;-25
2022/02/13 11:29:12;;;;;;;0.90;0.90;;;15.70;60.90;;;;;;5045053;28;20580;-25
2022/02/13 11:31:40;;;;;;;1.30;0.90;;;15.70;60.90;;;;;;5048579;28;20077;-25
2022/02/13 11:34:13;;;;;;;0.70;0.70;;;15.70;60.90;;;;;;5044694;28;20045;-25
2022/02/13 11:36:47;;;;;;;1.02;0.90;;;15.70;60.90;;;;;;5049851;28;20037;-25
2022/02/13 11:39:33;;;;;;;0.80;0.80;;;15.70;60.90;;;;;;5062263;28;20040;-25
2022/02/13 11:42:00;;;;;;;0.90;0.90;;;15.70;60.90;;;;;;5057848;28;20045;-25
2022/02/13 11:44:41;;;;;;;0.90;0.90;;;15.70;60.90;;;;;;5048906;28;20043;-25
2022/02/13 11:47:28;;;;;;;1.10;1.00;;;15.70;61.00;;;;;;5041764;28;20424;-25
2022/02/13 11:52:33;;;;;;;0.80;0.80;;;15.70;61.00;;;;;;5040591;28;20053;-27
2022/02/13 11:54:59;;;;;;;1.23;1.20;;;15.70;60.90;;;;;;5052297;28;20064;-24
2022/02/13 11:57:29;;;;;;;1.00;1.00;;;15.70;60.90;;;;;;5047168;28;20517;-25
2022/02/13 11:59:55;;;;;;;0.80;0.80;;;15.70;60.90;;;;;;5036452;28;20126;-24
2022/02/13 12:02:36;;;;;;;0.93;0.93;;;15.80;60.90;;;;;;5045036;28;20117;-25
2022/02/13 12:05:09;;;;;;;0.80;0.80;;;15.70;60.90;;;;;;5043370;28;20048;-25
2022/02/13 12:07:38;;;;;;;1.05;1.05;;;15.70;60.90;;;;;;5044147;28;20062;-27
2022/02/13 12:10:10;;;;;;;0.70;0.70;;;15.70;60.90;;;;;;5046406;28;20045;-26
2022/02/13 12:12:35;;;;;;;0.90;0.90;;;15.70;60.90;;;;;;5047778;28;20055;-24
2022/02/13 12:15:01;;;;;;;0.98;0.88;;;15.70;60.90;;;;;;5045183;28;20416;-26
2022/02/13 12:17:27;;;;;;;0.80;0.80;;;15.70;60.90;;;;;;5047536;28;20068;-25
2022/02/13 12:20:00;;;;;;;0.77;0.77;;;15.70;60.90;;;;;;5035814;28;20077;-25
2022/02/13 12:22:26;;;;;;;0.82;0.82;;;15.70;60.90;;;;;;5022316;28;20092;-25
2022/02/13 12:24:53;;;;;;;0.80;0.80;;;15.80;60.80;;;;;;5039150;28;20521;-26
2022/02/13 12:27:21;;;;;;;0.90;0.90;;;15.80;60.80;;;;;;5031051;28;20056;-25
2022/02/13 12:29:51;;;;;;;1.90;1.80;;;15.80;60.70;;;;;;5051684;28;20136;-25
2022/02/13 12:32:17;;;;;;;2.45;2.35;;;15.80;60.70;;;;;;5040727;28;20059;-25
2022/02/13 12:34:53;;;;;;;2.95;2.75;;;15.80;60.80;;;;;;5032817;28;20137;-25
2022/02/13 12:37:19;;;;;;;3.88;3.65;;;15.80;60.80;;;;;;5052489;28;20053;-26
2022/02/13 12:39:49;;;;;;;4.88;4.47;;;15.80;60.80;;;;;;5052510;28;20048;-26
2022/02/13 12:42:38;;;;;;;5.00;4.60;;;15.80;60.80;;;;;;5042252;28;20102;-25
2022/02/13 12:45:08;;;;;;;6.88;6.22;;;15.80;60.90;;;;;;5031616;28;20049;-25
2022/02/13 12:47:35;;;;;;;6.63;6.00;;;15.80;60.90;;;;;;5032958;28;20044;-25
2022/02/13 12:50:05;;;;;;;6.50;5.90;;;15.80;60.90;;;;;;5039850;28;20083;-25
2022/02/13 12:52:31;;;;;;;7.13;6.40;;;15.80;60.90;;;;;;5043238;28;20080;-27
2022/02/13 12:54:58;;;;;;;6.82;6.22;;;15.80;60.90;;;;;;5039742;28;20102;-24
2022/02/13 12:57:23;;;;;;;6.82;6.22;;;15.80;60.90;;;;;;5047281;28;20049;-25
2022/02/13 12:59:49;;;;;;;6.00;5.50;;;15.80;60.80;;;;;;5029435;28;20439;-25